Stamford, NY

4:05 PM EDT on August 23, 2014 (GMT -0400)
Stamford Central School | Change Station
CLOSE
Current Station
Personal Weather Station
Location: Stamford, NY
Elevation: 1804 ft
Nearby Weather Stations

Elev 1804 ft 42.41 °N, 74.62 °W | Updated 7 minutes ago

Mostly Cloudy
Mostly Cloudy
66.9 °F
Feels Like 66.9 °F
N
0.0
Wind Variable Wind from ENE

Today
High -- | Low -- °F
--% Chance of Precip.
Yesterday
High -- | Low -- °F
Precip. -- in
6:14 AM 7:47 PM
Waning Crescent, 3% visible
Pressure 30.12 in
Visibility 10.0 miles
Clouds Few 3800 ft
Mostly Cloudy 4800 ft
Mostly Cloudy 6000 ft
Dew Point 57 °F
Humidity 71%
Rainfall 0.00 in
Snow Depth Not available.
UV 2.5 out of 12
Pollen 7.90 out of 12
PM2.5 Good
Flu Activity Not available.
METAR KALB 231951Z 35005KT 10SM FEW038 BKN048 BKN060 23/14 A3012 RMK AO2 SLP199 T02280144 $

More Conditions Fewer Conditions

Pressure 30.12 in
Visibility 10.0 miles
Clouds Few 3800 ft
Mostly Cloudy 4800 ft
Mostly Cloudy 6000 ft
Dew Point 57 °F
Humidity 71%
Rainfall 0.00 in
Snow Depth Not available.
UV 2.5 out of 12
Pollen 7.90 out of 12
PM2.5 Good
Flu Activity Not available.
METAR KALB 231951Z 35005KT 10SM FEW038 BKN048 BKN060 23/14 A3012 RMK AO2 SLP199 T02280144 $

More Conditions Fewer Conditions

10-Day Weather Forecast

Almanac

Astronomy

Aug. 23, 2014 Rise Set
Actual Time 6:14 AM EDT 7:47 PM EDT
Civil Twilight 5:44 AM EDT 8:16 PM EDT
Nautical Twilight 5:08 AM EDT 8:52 PM EDT
Astronomical Twilight 4:30 AM EDT 9:30 PM EDT
Moon 4:27 AM EDT 6:30 PM EDT
Length of Visible Light 14h 32m
Length of Day
13h 33m
Tomorrow will be 2m 40s shorter.
Waning Crescent, 3% of the Moon is Illuminated
Today
Waning Crescent
Aug 25
New
Sep 2
First Quarter
Sep 8
Full
Sep 15
Last Quarter

Today's Extremes

State Highs State Lows

Community

WunderPhotos

Upload Photos

1,746,593 photos uploaded!

WunderBlogs® & News

Nearby

Air Quality

  Air Quality AQ Index Pollutant
Yesterday Good
OZONE
Yesterday Good
PM2.5
Current Good
PM2.5
Saturday Good
OZONE
Saturday Good
PM2.5
Sunday Good
OZONE
Sunday Good
PM2.5
Monday Good
OZONE
Monday Good
PM2.5

Snow Depth

Station Depth Elevation
No new snow has been reported.

Earthquake Activity

City Distance Mag. Time & Date
No recent earthquake activity has been reported nearby.
Minimum magnitude displayed is 2.5.

Coastal Water Temperatures

Place Temperature
No Stations Reporting

Nearby Weather Stations